createdAt,value
2019-03-04T00:00:02.816Z,95576.38
2019-03-04T00:01:16.094Z,95580.27
2019-03-04T00:02:25.661Z,95577.55
2019-03-04T00:03:32.809Z,95573.55
2019-03-04T00:04:39.970Z,95573.30
2019-03-04T00:05:47.869Z,95580.94
2019-03-04T00:06:55.047Z,95575.48
2019-03-04T00:08:02.203Z,95580.05
2019-03-04T00:09:11.695Z,95574.88
2019-03-04T00:10:19.029Z,95578.63
2019-03-04T00:11:26.201Z,95578.29
2019-03-04T00:12:33.360Z,95573.94
2019-03-04T00:13:40.511Z,95571.82
2019-03-04T00:14:47.668Z,95573.11
2019-03-04T00:15:54.852Z,95567.94
2019-03-04T00:17:02.065Z,95566.17
2019-03-04T00:18:09.182Z,95562.17
2019-03-04T00:19:16.386Z,95560.17
2019-03-04T00:20:23.551Z,95559.36
2019-03-04T00:21:30.720Z,95561.72
2019-03-04T00:22:37.889Z,95557.18
2019-03-04T00:23:44.963Z,95562.48
2019-03-04T00:24:52.124Z,95557.44
2019-03-04T00:25:59.271Z,95555.31
2019-03-04T00:27:06.535Z,95562.73
2019-03-04T00:28:13.714Z,95561.09
2019-03-04T00:29:20.800Z,95559.92
2019-03-04T00:30:27.962Z,95561.22
2019-03-04T00:31:35.161Z,95555.70
2019-03-04T00:32:45.156Z,95557.59
2019-03-04T00:33:52.609Z,95561.12
2019-03-04T00:34:59.757Z,95569.38
2019-03-04T00:36:06.924Z,95562.69
2019-03-04T00:37:14.077Z,95564.11
2019-03-04T00:38:21.778Z,95563.76
2019-03-04T00:39:29.470Z,95564.23
2019-03-04T00:40:36.635Z,95562.47
2019-03-04T00:41:43.811Z,95549.66
2019-03-04T00:42:50.967Z,95550.61
2019-03-04T00:43:58.132Z,95558.48
2019-03-04T00:45:05.655Z,95560.84
2019-03-04T00:46:13.931Z,95558.55
2019-03-04T00:47:21.100Z,95547.03
2019-03-04T00:48:28.271Z,95543.75
2019-03-04T00:49:35.451Z,95542.93
2019-03-04T00:50:43.008Z,95545.86
2019-03-04T00:51:50.363Z,95540.94
2019-03-04T00:52:57.535Z,95537.19
2019-03-04T00:54:04.887Z,95540.72
2019-03-04T00:55:12.763Z,95528.27
2019-03-04T00:56:19.960Z,95530.50
2019-03-04T00:57:27.112Z,95535.67
2019-03-04T00:58:34.294Z,95535.67
2019-03-04T00:59:41.429Z,95534.73
2019-03-04T01:00:48.582Z,95530.84
2019-03-04T01:01:56.815Z,95529.55
2019-03-04T01:03:04.122Z,95523.44
2019-03-04T01:04:11.313Z,95526.02
2019-03-04T01:05:18.670Z,95518.86
2019-03-04T01:06:25.833Z,95515.48
2019-03-04T01:07:32.976Z,95520.78
2019-03-04T01:08:40.122Z,95521.03
2019-03-04T01:09:47.314Z,95517.50
2019-03-04T01:10:54.463Z,95519.14
2019-03-04T01:12:01.628Z,95516.56
2019-03-04T01:13:08.789Z,95518.33
2019-03-04T01:14:15.957Z,95521.26
2019-03-04T01:15:23.548Z,95519.49
2019-03-04T01:16:31.877Z,95513.84
2019-03-04T01:17:39.030Z,95510.92
2019-03-04T01:18:47.161Z,95509.16
2019-03-04T01:19:56.084Z,95507.52
2019-03-04T01:21:03.314Z,95506.91
2019-03-04T01:22:11.204Z,95506.56
2019-03-04T01:23:18.908Z,95507.58
2019-03-04T01:24:25.986Z,95497.59
2019-03-04T01:25:33.141Z,95489.36
2019-03-04T01:26:40.310Z,95482.42
2019-03-04T01:27:47.702Z,95475.48
2019-03-04T01:28:54.771Z,95473.97
2019-03-04T01:30:01.931Z,95469.43
2019-03-04T01:31:09.455Z,95469.20
2019-03-04T01:32:16.613Z,95469.81
2019-03-04T01:33:23.759Z,95463.12
2019-03-04T01:34:30.934Z,95460.06
2019-03-04T01:35:38.132Z,95454.89
2019-03-04T01:36:46.491Z,95458.90
2019-03-04T01:37:53.658Z,95451.49
2019-03-04T01:39:00.805Z,95454.55
2019-03-04T01:40:13.186Z,95452.91
2019-03-04T01:41:21.097Z,95455.14
2019-03-04T01:42:28.314Z,95453.16
2019-03-04T01:43:35.410Z,95453.98
2019-03-04T01:44:42.557Z,95450.92
2019-03-04T01:45:49.706Z,95448.34
2019-03-04T01:46:56.846Z,95450.92
2019-03-04T01:48:04.009Z,95444.93
2019-03-04T01:49:11.162Z,95441.05
2019-03-04T01:50:19.092Z,95440.11
2019-03-04T01:51:26.250Z,95440.11
2019-03-04T01:52:33.401Z,95439.29
2019-03-04T01:53:40.556Z,95438.81
2019-03-04T01:54:47.703Z,95428.83
2019-03-04T01:55:54.853Z,95428.01
2019-03-04T01:57:01.958Z,95421.55
2019-03-04T01:58:10.373Z,95422.84
2019-03-04T01:59:17.524Z,95429.30
2019-03-04T02:00:24.779Z,95428.83
2019-03-04T02:01:31.921Z,95421.67
2019-03-04T02:02:39.081Z,95420.73
2019-03-04T02:03:46.259Z,95416.03
2019-03-04T02:04:53.509Z,95422.84
2019-03-04T02:06:00.658Z,95423.31
2019-03-04T02:07:08.735Z,95421.20
2019-03-04T02:08:16.212Z,95418.14
2019-03-04T02:09:23.877Z,95415.90
2019-03-04T02:10:31.029Z,95416.25
2019-03-04T02:11:38.183Z,95410.95
2019-03-04T02:12:45.462Z,95407.77
2019-03-04T02:13:52.628Z,95413.41
2019-03-04T02:14:59.832Z,95402.95
2019-03-04T02:16:06.943Z,95402.59
2019-03-04T02:17:14.088Z,95404.84
2019-03-04T02:18:21.256Z,95400.61
2019-03-04T02:19:28.398Z,95402.38
2019-03-04T02:20:35.589Z,95399.45
2019-03-04T02:21:42.742Z,95400.39
2019-03-04T02:22:49.892Z,95392.16
2019-03-04T02:23:58.481Z,95398.63
2019-03-04T02:25:06.594Z,95388.77
2019-03-04T02:26:25.044Z,95399.58
2019-03-04T02:27:32.193Z,95393.11
2019-03-04T02:28:39.346Z,95385.95
2019-03-04T02:29:46.508Z,95390.18
2019-03-04T02:30:53.657Z,95390.53
2019-03-04T02:32:00.850Z,95388.29
2019-03-04T02:33:07.992Z,95386.52
2019-03-04T02:34:15.176Z,95387.34
2019-03-04T02:35:22.328Z,95388.51
2019-03-04T02:36:29.406Z,95377.22
2019-03-04T02:37:36.565Z,95373.69
2019-03-04T02:38:45.185Z,95373.69
2019-03-04T02:39:52.346Z,95372.40
2019-03-04T02:40:59.420Z,95362.53
2019-03-04T02:42:06.577Z,95358.66
2019-03-04T02:43:13.679Z,95359.13
2019-03-04T02:44:20.834Z,95354.91
2019-03-04T02:45:27.996Z,95343.75
2019-03-04T02:46:35.149Z,95344.70
2019-03-04T02:47:42.297Z,95345.17
2019-03-04T02:48:49.463Z,95344.22
2019-03-04T02:49:56.611Z,95353.61
2019-03-04T02:51:03.765Z,95350.20
2019-03-04T02:52:10.977Z,95343.97
2019-03-04T02:53:18.137Z,95344.18
2019-03-04T02:54:25.309Z,95341.12
2019-03-04T02:55:32.464Z,95328.55
2019-03-04T02:56:39.607Z,95319.49
2019-03-04T02:57:46.874Z,95327.91
2019-03-04T02:58:54.046Z,95322.73
2019-03-04T03:00:01.207Z,95321.79
2019-03-04T03:01:09.952Z,95320.84
2019-03-04T03:02:17.094Z,95323.77
2019-03-04T03:03:24.244Z,95320.11
2019-03-04T03:04:31.438Z,95322.70
2019-03-04T03:05:38.601Z,95325.97
2019-03-04T03:06:45.772Z,95319.50
2019-03-04T03:07:52.932Z,95319.03
2019-03-04T03:09:00.091Z,95328.42
2019-03-04T03:10:07.841Z,95324.20
2019-03-04T03:11:14.994Z,95321.96
2019-03-04T03:12:22.185Z,95320.54
2019-03-04T03:13:29.254Z,95317.95
2019-03-04T03:14:36.412Z,95316.02
2019-03-04T03:15:43.491Z,95313.78
2019-03-04T03:16:50.658Z,95317.53
2019-03-04T03:17:57.838Z,95319.64
2019-03-04T03:19:04.989Z,95316.92
2019-03-04T03:20:13.360Z,95315.16
2019-03-04T03:21:20.518Z,95307.41
2019-03-04T03:22:27.610Z,95297.41
2019-03-04T03:23:34.784Z,95308.22
2019-03-04T03:24:41.971Z,95303.52
2019-03-04T03:25:49.127Z,95303.52
2019-03-04T03:26:56.298Z,95306.45
2019-03-04T03:28:03.460Z,95297.75
2019-03-04T03:29:10.631Z,95295.50
2019-03-04T03:30:17.919Z,95288.09
2019-03-04T03:31:25.077Z,95295.72
2019-03-04T03:32:32.277Z,95295.24
2019-03-04T03:33:39.423Z,95295.08
2019-03-04T03:34:46.603Z,95300.94
2019-03-04T03:35:53.794Z,95300.94
2019-03-04T03:37:00.918Z,95306.11
2019-03-04T03:38:08.087Z,95303.18
2019-03-04T03:39:15.173Z,95303.52
2019-03-04T03:40:22.570Z,95297.53
2019-03-04T03:41:29.825Z,95292.02
2019-03-04T03:42:37.062Z,95290.25
2019-03-04T03:43:44.209Z,95292.70
2019-03-04T03:44:51.365Z,95283.17
2019-03-04T03:45:58.530Z,95293.39
2019-03-04T03:47:05.717Z,95281.28
2019-03-04T03:48:12.869Z,95286.45
2019-03-04T03:49:20.024Z,95280.80
2019-03-04T03:50:27.208Z,95282.91
2019-03-04T03:51:35.837Z,95280.80
2019-03-04T03:52:43.022Z,95285.50
2019-03-04T03:53:50.171Z,95289.38
2019-03-04T03:54:57.323Z,95294.55
2019-03-04T03:56:04.805Z,95289.03
2019-03-04T03:57:11.978Z,95279.98
2019-03-04T03:58:19.148Z,95276.92
2019-03-04T03:59:26.336Z,95276.45
2019-03-04T04:00:33.491Z,95271.14
2019-03-04T04:01:40.650Z,95268.77
2019-03-04T04:02:47.840Z,95252.30
2019-03-04T04:03:55.045Z,95251.31
2019-03-04T04:05:02.126Z,95252.61
2019-03-04T04:06:09.314Z,95259.89
2019-03-04T04:07:16.499Z,95263.64
2019-03-04T04:08:23.647Z,95258.13
2019-03-04T04:09:30.819Z,95251.52
2019-03-04T04:10:37.980Z,95252.34
2019-03-04T04:11:48.727Z,95246.82
2019-03-04T04:12:56.318Z,95246.48
2019-03-04T04:14:04.728Z,95249.41
2019-03-04T04:15:12.976Z,95238.25
2019-03-04T04:16:20.169Z,95214.63
2019-03-04T04:17:27.342Z,95211.56
2019-03-04T04:18:34.544Z,95223.55
2019-03-04T04:19:41.704Z,95234.84
2019-03-04T04:20:48.877Z,95236.48
2019-03-04T04:21:56.034Z,95250.23
2019-03-04T04:23:03.191Z,95246.69
2019-03-04T04:24:10.367Z,95247.98
2019-03-04T04:25:17.531Z,95247.51
2019-03-04T04:26:24.694Z,95245.39
2019-03-04T04:27:31.857Z,95245.05
2019-03-04T04:28:39.033Z,95240.70
2019-03-04T04:29:46.123Z,95239.88
2019-03-04T04:30:53.286Z,95229.41
2019-03-04T04:32:00.458Z,95220.34
2019-03-04T04:33:07.686Z,95214.56
2019-03-04T04:34:14.892Z,95218.78
2019-03-04T04:35:22.072Z,95215.72
2019-03-04T04:36:29.228Z,95212.05
2019-03-04T04:37:36.327Z,95205.58
2019-03-04T04:38:44.486Z,95199.45
2019-03-04T04:39:51.695Z,95192.81
2019-03-04T04:40:58.830Z,95191.52
2019-03-04T04:42:07.310Z,95189.28
2019-03-04T04:43:14.486Z,95188.94
2019-03-04T04:44:21.634Z,95184.75
2019-03-04T04:45:28.784Z,95186.17
2019-03-04T04:47:03.300Z,95179.03
2019-03-04T04:48:10.966Z,95170.92
2019-03-04T04:49:18.155Z,95167.59
2019-03-04T04:50:26.492Z,95165.00
2019-03-04T04:51:34.681Z,95157.92
2019-03-04T04:52:42.168Z,95151.80
2019-03-04T04:53:49.417Z,95146.01
2019-03-04T04:54:56.583Z,95143.29
2019-03-04T04:56:03.705Z,95143.15
2019-03-04T04:57:10.829Z,95142.20
2019-03-04T04:58:18.011Z,95138.31
2019-03-04T04:59:25.174Z,95137.36
2019-03-04T05:00:32.357Z,95135.91
2019-03-04T05:01:39.505Z,95138.97
2019-03-04T05:02:47.786Z,95130.55
2019-03-04T05:03:56.051Z,95127.16
2019-03-04T05:05:03.252Z,95128.24
2019-03-04T05:06:10.421Z,95128.24
2019-03-04T05:07:17.640Z,95118.84
2019-03-04T05:08:24.730Z,95113.67
2019-03-04T05:09:31.887Z,95107.89
2019-03-04T05:10:39.054Z,95102.23
2019-03-04T05:11:46.243Z,95103.88
2019-03-04T05:12:53.411Z,95105.98
2019-03-04T05:14:00.570Z,95105.64
2019-03-04T05:15:09.629Z,95104.82
2019-03-04T05:16:16.796Z,95102.38
2019-03-04T05:17:23.925Z,95102.17
2019-03-04T05:18:31.081Z,95105.71
2019-03-04T05:19:38.245Z,95103.06
2019-03-04T05:20:45.411Z,95105.81
2019-03-04T05:21:52.546Z,95088.33
2019-03-04T05:22:59.739Z,95080.36
2019-03-04T05:24:06.895Z,95077.91
2019-03-04T05:25:14.553Z,95073.97
2019-03-04T05:26:21.726Z,95072.98
2019-03-04T05:27:28.874Z,95059.98
2019-03-04T05:28:36.012Z,95052.63
2019-03-04T05:29:43.106Z,95058.42
2019-03-04T05:30:50.269Z,95043.55
2019-03-04T05:31:57.423Z,95031.58
2019-03-04T05:33:04.588Z,95032.53
2019-03-04T05:34:11.745Z,95033.34
2019-03-04T05:35:18.911Z,95033.48
2019-03-04T05:36:27.170Z,95033.48
2019-03-04T05:37:34.341Z,95030.08
2019-03-04T05:38:41.488Z,95027.02
2019-03-04T05:39:48.649Z,95026.88
2019-03-04T05:40:55.818Z,95028.86
2019-03-04T05:42:02.984Z,95033.72
2019-03-04T05:43:10.218Z,95028.27
2019-03-04T05:44:17.379Z,95020.72
2019-03-04T05:45:24.561Z,95017.05
2019-03-04T05:46:31.709Z,95005.61
2019-03-04T05:47:39.112Z,95004.14
2019-03-04T05:48:46.192Z,95000.94
2019-03-04T05:49:53.377Z,95002.23
2019-03-04T05:51:00.553Z,95001.76
2019-03-04T05:52:07.811Z,95007.41
2019-03-04T05:53:14.960Z,95001.89
2019-03-04T05:54:22.057Z,95003.33
2019-03-04T05:55:29.343Z,95004.45
2019-03-04T05:56:36.857Z,94994.38
2019-03-04T05:57:44.041Z,94986.91
2019-03-04T05:58:51.137Z,94977.80
2019-03-04T05:59:58.290Z,94959.05
2019-03-04T06:01:28.676Z,94939.94
2019-03-04T06:02:35.824Z,94938.59
2019-03-04T06:03:42.977Z,94933.47
2019-03-04T06:04:50.142Z,94934.22
2019-03-04T06:05:57.385Z,94928.03
2019-03-04T06:07:23.465Z,94926.23
2019-03-04T06:08:30.558Z,94927.80
2019-03-04T06:09:37.705Z,94925.97
2019-03-04T06:10:44.865Z,94926.45
2019-03-04T06:11:52.010Z,94920.80
2019-03-04T06:12:59.167Z,94930.19
2019-03-04T06:14:07.896Z,94933.45
2019-03-04T06:15:20.017Z,94929.62
2019-03-04T06:16:27.173Z,94934.49
2019-03-04T06:17:34.330Z,94928.70
2019-03-04T06:18:41.491Z,94924.89
2019-03-04T06:19:48.717Z,94921.22
2019-03-04T06:20:55.891Z,94922.23
2019-03-04T06:22:03.047Z,94919.34
2019-03-04T06:23:10.240Z,94916.81
2019-03-04T06:24:17.392Z,94919.59
2019-03-04T06:25:27.377Z,94918.33
2019-03-04T06:26:34.532Z,94910.63
2019-03-04T06:27:41.765Z,94912.13
2019-03-04T06:28:49.988Z,94906.19
2019-03-04T06:29:57.060Z,94904.11
2019-03-04T06:31:04.238Z,94897.02
2019-03-04T06:32:11.403Z,94899.47
2019-03-04T06:33:18.585Z,94901.77
2019-03-04T06:34:25.728Z,94901.63
2019-03-04T06:35:32.886Z,94897.61
2019-03-04T06:36:41.150Z,94896.95
2019-03-04T06:37:48.340Z,94906.34
2019-03-04T06:38:55.497Z,94897.77
2019-03-04T06:40:02.672Z,94902.94
2019-03-04T06:41:10.797Z,94907.64
2019-03-04T06:42:18.122Z,94904.23
2019-03-04T06:43:26.276Z,94908.93
2019-03-04T06:44:33.463Z,94902.13
2019-03-04T06:45:40.629Z,94914.11
2019-03-04T06:46:47.794Z,94914.11
2019-03-04T06:47:55.021Z,94917.84
2019-03-04T06:49:02.224Z,94916.41
2019-03-04T06:50:30.207Z,94913.34
2019-03-04T06:51:49.239Z,94916.60
2019-03-04T06:52:56.934Z,94907.97
2019-03-04T06:54:51.399Z,94898.56
2019-03-04T06:56:11.959Z,94899.23
2019-03-04T06:57:28.503Z,94887.69
2019-03-04T06:58:33.195Z,94884.42
2019-03-04T07:00:44.049Z,94885.24
2019-03-04T07:01:56.367Z,94884.63
2019-03-04T07:03:08.982Z,94877.08
2019-03-04T07:04:27.201Z,94885.64
2019-03-04T07:05:53.847Z,94882.58
2019-03-04T07:07:01.191Z,94889.86
2019-03-04T07:08:09.839Z,94885.92
2019-03-04T07:09:19.957Z,94885.30
2019-03-04T07:10:27.119Z,94881.42
2019-03-04T07:11:34.759Z,94882.92
2019-03-04T07:12:42.391Z,94896.83
2019-03-04T07:13:50.814Z,94903.34
2019-03-04T07:14:58.094Z,94897.55
2019-03-04T07:16:06.077Z,94897.41
2019-03-04T07:17:14.693Z,94901.83
2019-03-04T07:18:22.531Z,94908.59
2019-03-04T07:19:33.439Z,94905.86
2019-03-04T07:20:40.600Z,94912.19
2019-03-04T07:21:48.097Z,94906.88
2019-03-04T07:22:56.176Z,94902.52
2019-03-04T07:24:03.949Z,94904.82
2019-03-04T07:25:12.106Z,94899.02
2019-03-04T07:26:19.789Z,94901.77
2019-03-04T07:27:27.017Z,94894.83
2019-03-04T07:28:34.199Z,94901.01
2019-03-04T07:29:41.363Z,94886.16
2019-03-04T07:30:48.527Z,94894.14
2019-03-04T07:31:55.752Z,94891.75
2019-03-04T07:33:02.947Z,94900.00
2019-03-04T07:34:10.107Z,94894.20
2019-03-04T07:35:17.391Z,94889.56
2019-03-04T07:36:24.559Z,94892.34
2019-03-04T07:37:31.735Z,94898.83
2019-03-04T07:39:14.871Z,94890.30
2019-03-04T07:40:22.378Z,94894.51
2019-03-04T07:41:43.037Z,94885.25
2019-03-04T07:42:51.931Z,94882.14
2019-03-04T07:43:59.255Z,94888.14
2019-03-04T07:45:08.078Z,94884.11
2019-03-04T07:46:16.404Z,94882.05
2019-03-04T07:47:23.565Z,94881.76
2019-03-04T07:48:31.133Z,94885.35
2019-03-04T07:49:38.291Z,94883.40
2019-03-04T07:50:45.593Z,94880.19
2019-03-04T07:51:52.892Z,94889.91
2019-03-04T07:53:00.140Z,94882.34
2019-03-04T07:54:07.521Z,94880.56
2019-03-04T07:55:14.686Z,94881.23
2019-03-04T07:56:21.861Z,94878.16
2019-03-04T07:57:29.190Z,94881.39
2019-03-04T07:58:36.492Z,94887.23
2019-03-04T07:59:45.456Z,94893.56
2019-03-04T08:00:52.544Z,94892.94
2019-03-04T08:01:59.898Z,94894.08
2019-03-04T08:03:07.176Z,94900.11
2019-03-04T08:04:14.401Z,94901.91
2019-03-04T08:05:23.295Z,94902.42
2019-03-04T08:06:32.110Z,94897.44
2019-03-04T08:07:42.739Z,94897.81
2019-03-04T08:10:09.867Z,94901.25
2019-03-04T08:12:34.266Z,94893.97
2019-03-04T08:13:50.674Z,94887.08
2019-03-04T08:14:57.789Z,94891.05
2019-03-04T08:16:06.596Z,94883.92
2019-03-04T08:17:14.119Z,94887.70
2019-03-04T08:18:21.301Z,94890.00
2019-03-04T08:19:28.376Z,94889.41
2019-03-04T08:20:36.329Z,94898.33
2019-03-04T08:21:43.539Z,94895.78
2019-03-04T08:22:50.896Z,94900.52
2019-03-04T08:23:57.979Z,94905.22
2019-03-04T08:25:05.680Z,94907.36
2019-03-04T08:26:13.001Z,94913.73
2019-03-04T08:27:20.197Z,94905.48
2019-03-04T08:28:28.590Z,94910.36
2019-03-04T08:29:35.864Z,94909.46
2019-03-04T08:30:43.346Z,94907.69
2019-03-04T08:31:50.531Z,94917.27
2019-03-04T08:32:57.926Z,94921.19
2019-03-04T08:34:05.108Z,94919.23
2019-03-04T08:35:12.284Z,94926.70
2019-03-04T08:36:19.396Z,94930.45
2019-03-04T08:37:26.587Z,94941.48
2019-03-04T08:38:33.730Z,94946.03
2019-03-04T08:39:40.941Z,94948.00
2019-03-04T08:40:48.150Z,94948.63
2019-03-04T08:41:55.333Z,94949.29
2019-03-04T08:43:02.504Z,94963.73
2019-03-04T08:44:09.652Z,94966.99
2019-03-04T08:45:19.378Z,94959.88
2019-03-04T08:46:26.578Z,94959.88
2019-03-04T08:47:33.736Z,94954.38
2019-03-04T08:48:40.853Z,94957.31
2019-03-04T08:49:47.951Z,94953.11
2019-03-04T08:50:55.132Z,94955.07
2019-03-04T08:52:02.284Z,94963.84
2019-03-04T08:53:09.448Z,94967.89
2019-03-04T08:54:16.603Z,94961.25
2019-03-04T08:55:23.764Z,94964.50
2019-03-04T08:56:32.696Z,94968.40
2019-03-04T08:57:40.009Z,94963.55
2019-03-04T08:58:47.184Z,94982.67
2019-03-04T08:59:54.336Z,94974.55
2019-03-04T09:01:01.784Z,94988.83
2019-03-04T09:02:09.501Z,94987.20
2019-03-04T09:03:16.708Z,94997.09
2019-03-04T09:04:23.902Z,94995.80
2019-03-04T09:05:31.051Z,94999.53
2019-03-04T09:06:38.314Z,95007.31
2019-03-04T09:07:45.617Z,95004.24
2019-03-04T09:08:53.141Z,95000.53
2019-03-04T09:10:00.345Z,95004.75
2019-03-04T09:11:07.472Z,95000.37
2019-03-04T09:12:14.711Z,94997.30
2019-03-04T09:13:21.861Z,94992.74
2019-03-04T09:14:29.021Z,94996.63
2019-03-04T09:15:37.239Z,94996.00
2019-03-04T09:16:44.446Z,95014.98
2019-03-04T09:17:51.605Z,95014.34
2019-03-04T09:18:58.765Z,95025.06
2019-03-04T09:20:06.833Z,95031.39
2019-03-04T09:21:13.837Z,95044.22
2019-03-04T09:22:21.067Z,95050.55
2019-03-04T09:23:28.247Z,95053.81
2019-03-04T09:24:35.431Z,95062.57
2019-03-04T09:25:54.997Z,95076.36
2019-03-04T09:27:02.174Z,95076.84
2019-03-04T09:28:09.348Z,95072.44
2019-03-04T09:29:16.506Z,95070.80
2019-03-04T09:30:24.416Z,95061.39
2019-03-04T09:31:31.576Z,95099.66
2019-03-04T09:32:38.731Z,95075.00
2019-03-04T09:33:45.895Z,95084.72
2019-03-04T09:34:53.051Z,95078.70
2019-03-04T09:36:00.498Z,95069.14
2019-03-04T09:37:07.721Z,95057.95
2019-03-04T09:38:14.890Z,95047.42
2019-03-04T09:39:22.059Z,95052.61
2019-03-04T09:40:30.730Z,95058.28
2019-03-04T09:41:37.815Z,95069.63
2019-03-04T09:42:45.177Z,95070.41
2019-03-04T09:43:52.327Z,95081.42
2019-03-04T09:44:59.506Z,95073.78
2019-03-04T09:46:06.679Z,95066.63
2019-03-04T09:47:13.833Z,95078.23
2019-03-04T09:48:21.030Z,95056.51
2019-03-04T09:49:28.186Z,95071.26
2019-03-04T09:50:35.363Z,95079.04
2019-03-04T09:51:42.520Z,95092.59
2019-03-04T09:52:49.747Z,95098.08
2019-03-04T09:53:56.913Z,95083.44
2019-03-04T09:55:04.317Z,95079.40
2019-03-04T09:56:11.836Z,95089.58
2019-03-04T09:57:18.947Z,95043.20
2019-03-04T09:58:26.108Z,95021.01
2019-03-04T09:59:33.259Z,95024.86
2019-03-04T10:01:22.375Z,95024.20
2019-03-04T10:02:37.212Z,95037.64
2019-03-04T10:04:24.013Z,95013.56
2019-03-04T10:06:16.946Z,95020.04
2019-03-04T10:07:46.478Z,95001.86
2019-03-04T10:09:29.444Z,95012.98
2019-03-04T10:11:56.168Z,95022.83
2019-03-04T10:14:01.522Z,94981.36
2019-03-04T10:15:35.875Z,94970.25
2019-03-04T10:17:26.375Z,94963.76
2019-03-04T10:19:07.728Z,94945.30
2019-03-04T10:21:02.335Z,94943.84
2019-03-04T10:22:32.142Z,94929.75
2019-03-04T10:24:18.522Z,94933.31
2019-03-04T10:26:05.110Z,94971.73
2019-03-04T10:27:40.247Z,94934.87
2019-03-04T10:29:31.156Z,94944.27
2019-03-04T10:31:40.119Z,94960.67
2019-03-04T10:33:39.462Z,94935.58
2019-03-04T10:35:39.987Z,94944.46
2019-03-04T10:37:44.062Z,94949.31
2019-03-04T10:39:30.178Z,94927.80
2019-03-04T10:41:21.298Z,94939.95
2019-03-04T10:43:05.938Z,94932.84
2019-03-04T10:45:14.975Z,94926.55
2019-03-04T10:47:00.511Z,94914.25
2019-03-04T10:48:07.747Z,94920.36
2019-03-04T10:49:14.915Z,94921.84
2019-03-04T10:50:22.115Z,94958.98
2019-03-04T10:51:29.567Z,94929.87
2019-03-04T10:52:36.838Z,94931.05
2019-03-04T10:53:44.073Z,94939.82
2019-03-04T10:54:51.316Z,94929.81
2019-03-04T10:55:58.497Z,94917.36
2019-03-04T10:57:05.654Z,94911.20
2019-03-04T10:58:12.925Z,94914.45
2019-03-04T10:59:20.114Z,94902.81
2019-03-04T11:00:27.295Z,94928.93
2019-03-04T11:01:34.534Z,94941.08
2019-03-04T11:02:42.811Z,94932.52
2019-03-04T11:03:49.967Z,94925.21
2019-03-04T11:04:57.128Z,94920.36
2019-03-04T11:06:04.316Z,94937.39
2019-03-04T11:07:11.596Z,94937.73
2019-03-04T11:08:18.748Z,94925.09
2019-03-04T11:09:25.939Z,94923.13
2019-03-04T11:10:33.092Z,94918.75
2019-03-04T11:11:40.437Z,94933.67
2019-03-04T11:12:47.618Z,94921.37
2019-03-04T11:13:56.295Z,94918.13
2019-03-04T11:15:03.548Z,94935.97
2019-03-04T11:16:10.977Z,94909.05
2019-03-04T11:17:18.144Z,94931.59
2019-03-04T11:18:25.321Z,94929.48
2019-03-04T11:19:32.477Z,94932.23
2019-03-04T11:20:40.716Z,94938.72
2019-03-04T11:21:47.872Z,94942.27
2019-03-04T11:22:55.102Z,94941.30
2019-03-04T11:24:02.298Z,94945.05
2019-03-04T11:25:09.644Z,94947.31
2019-03-04T11:26:16.826Z,94960.61
2019-03-04T11:27:24.281Z,94945.84
2019-03-04T11:28:31.468Z,94951.51
2019-03-04T11:29:38.651Z,94953.63
2019-03-04T11:30:46.299Z,94954.10
2019-03-04T11:31:53.458Z,94970.48
2019-03-04T11:33:01.418Z,94962.70
2019-03-04T11:34:08.671Z,94943.73
2019-03-04T11:35:15.834Z,94947.62
2019-03-04T11:36:23.115Z,94935.30
2019-03-04T11:37:30.283Z,94917.47
2019-03-04T11:38:47.146Z,94930.78
2019-03-04T11:40:16.709Z,94937.27
2019-03-04T11:41:24.552Z,94919.43
2019-03-04T11:42:31.746Z,94918.92
2019-03-04T11:43:38.892Z,94917.78
2019-03-04T11:44:47.933Z,94915.19
2019-03-04T11:45:55.135Z,94909.19
2019-03-04T11:47:02.319Z,94928.49
2019-03-04T11:48:10.380Z,94917.63
2019-03-04T11:49:18.659Z,94910.15
2019-03-04T11:50:26.302Z,94881.13
2019-03-04T11:51:33.669Z,94860.08
2019-03-04T11:52:40.868Z,94850.19
2019-03-04T11:53:49.338Z,94860.23
2019-03-04T11:54:57.561Z,94883.09
2019-03-04T11:56:05.354Z,94873.99
2019-03-04T11:57:12.598Z,94880.48
2019-03-04T11:58:19.963Z,94883.88
2019-03-04T11:59:27.208Z,94887.93
2019-03-04T12:00:44.078Z,94911.45
2019-03-04T12:01:51.341Z,94883.73
2019-03-04T12:02:59.624Z,94901.86
2019-03-04T12:04:07.854Z,94896.83
2019-03-04T12:05:15.187Z,94905.42
2019-03-04T12:06:24.190Z,94897.97
2019-03-04T12:07:31.341Z,94901.05
2019-03-04T12:08:38.508Z,94922.63
2019-03-04T12:09:45.625Z,94900.09
2019-03-04T12:10:52.817Z,94915.50
2019-03-04T12:12:00.005Z,94900.75
2019-03-04T12:13:07.183Z,94915.83
2019-03-04T12:14:14.380Z,94916.80
2019-03-04T12:15:22.153Z,94926.03
2019-03-04T12:16:29.320Z,94918.73
2019-03-04T12:17:37.643Z,94902.83
2019-03-04T12:18:44.809Z,94915.31
2019-03-04T12:19:53.060Z,94915.80
2019-03-04T12:21:01.410Z,94928.92
2019-03-04T12:22:08.860Z,94913.52
2019-03-04T12:23:18.540Z,94930.86
2019-03-04T12:24:25.880Z,94932.82
2019-03-04T12:25:33.056Z,94916.92
2019-03-04T12:26:41.017Z,94896.16
2019-03-04T12:27:48.178Z,94905.86
2019-03-04T12:28:55.531Z,94915.42
2019-03-04T12:30:02.675Z,94944.59
2019-03-04T12:31:09.932Z,94933.39
2019-03-04T12:32:24.924Z,94924.80
2019-03-04T12:33:32.086Z,94939.73
2019-03-04T12:34:39.243Z,94944.08
2019-03-04T12:35:46.583Z,94968.05
2019-03-04T12:36:54.714Z,94979.86
2019-03-04T12:38:01.869Z,94987.94
2019-03-04T12:39:11.701Z,94980.01
2019-03-04T12:40:19.670Z,94976.60
2019-03-04T12:41:26.913Z,94980.64
2019-03-04T12:42:34.015Z,94980.30
2019-03-04T12:43:41.204Z,94986.78
2019-03-04T12:44:48.361Z,94999.08
2019-03-04T12:45:55.618Z,94981.56
2019-03-04T12:47:02.788Z,94981.71
2019-03-04T12:48:09.965Z,94979.30
2019-03-04T12:49:17.183Z,94967.78
2019-03-04T12:50:26.515Z,94993.37
2019-03-04T12:51:34.757Z,94962.86
2019-03-04T12:52:42.042Z,94974.34
2019-03-04T12:53:49.214Z,94962.83
2019-03-04T12:54:57.345Z,94979.02
2019-03-04T12:56:04.498Z,94967.02
2019-03-04T12:57:11.660Z,94961.83
2019-03-04T12:58:18.822Z,94968.79
2019-03-04T12:59:26.027Z,94960.23
2019-03-04T13:00:33.584Z,94946.61
2019-03-04T13:01:40.742Z,94961.20
2019-03-04T13:02:57.211Z,94980.30
2019-03-04T13:03:56.855Z,94950.98
2019-03-04T13:05:04.450Z,94955.53
2019-03-04T13:06:12.508Z,94972.05
2019-03-04T13:07:19.655Z,94944.64
2019-03-04T13:08:26.805Z,94935.88
2019-03-04T13:09:33.975Z,94972.30
2019-03-04T13:10:41.156Z,94942.64
2019-03-04T13:11:48.322Z,94934.06
2019-03-04T13:12:55.584Z,94915.92
2019-03-04T13:14:02.689Z,94924.84
2019-03-04T13:15:16.605Z,94912.70
2019-03-04T13:16:24.833Z,94920.32
2019-03-04T13:17:31.989Z,94928.39
2019-03-04T13:18:40.669Z,94924.17
2019-03-04T13:19:48.024Z,94912.52
2019-03-04T13:20:55.612Z,94918.84
2019-03-04T13:22:08.477Z,94909.44
2019-03-04T13:23:12.257Z,94914.77
2019-03-04T13:24:19.424Z,94910.55
2019-03-04T13:25:26.577Z,94913.28
2019-03-04T13:26:33.752Z,94926.72
2019-03-04T13:27:40.916Z,94915.21
2019-03-04T13:28:48.081Z,94908.55
2019-03-04T13:29:55.254Z,94917.28
2019-03-04T13:31:02.407Z,94912.28
2019-03-04T13:32:09.902Z,94895.59
2019-03-04T13:33:17.191Z,94913.05
2019-03-04T13:34:24.601Z,94899.77
2019-03-04T13:35:31.819Z,94909.47
2019-03-04T13:36:38.975Z,94922.90
2019-03-04T13:37:47.211Z,94935.52
2019-03-04T13:38:54.391Z,94927.41